sensor_id;sensor_type;location;lat;lon;timestamp;pressure;altitude;pressure_sealevel;temperature;humidity
15477;BME280;7840;42.702;23.296;2022-08-25T00:01:50;94938.66;;;19.97;100.00
15477;BME280;7840;42.702;23.296;2022-08-25T00:04:19;94942.00;;;19.93;100.00
15477;BME280;7840;42.702;23.296;2022-08-25T00:06:48;94945.22;;;19.82;100.00
15477;BME280;7840;42.702;23.296;2022-08-25T00:09:25;94938.09;;;19.55;100.00
15477;BME280;7840;42.702;23.296;2022-08-25T00:11:53;94933.41;;;19.60;100.00
15477;BME280;7840;42.702;23.296;2022-08-25T00:14:23;94936.50;;;19.76;100.00
15477;BME280;7840;42.702;23.296;2022-08-25T00:16:53;94944.00;;;19.88;100.00
15477;BME280;7840;42.702;23.296;2022-08-25T00:19:24;94942.63;;;19.90;100.00
15477;BME280;7840;42.702;23.296;2022-08-25T00:21:52;94940.09;;;19.94;100.00
15477;BME280;7840;42.702;23.296;2022-08-25T00:24:20;94927.63;;;19.98;100.00
15477;BME280;7840;42.702;23.296;2022-08-25T00:26:51;94929.22;;;19.99;100.00
15477;BME280;7840;42.702;23.296;2022-08-25T00:29:20;94916.91;;;20.07;100.00
15477;BME280;7840;42.702;23.296;2022-08-25T00:31:53;94922.75;;;20.09;100.00
15477;BME280;7840;42.702;23.296;2022-08-25T00:34:27;94932.91;;;20.12;100.00
15477;BME280;7840;42.702;23.296;2022-08-25T00:36:55;94936.19;;;20.09;100.00
15477;BME280;7840;42.702;23.296;2022-08-25T00:39:24;94919.28;;;20.08;100.00
15477;BME280;7840;42.702;23.296;2022-08-25T00:41:53;94929.38;;;19.72;100.00
15477;BME280;7840;42.702;23.296;2022-08-25T00:44:25;94927.28;;;19.68;100.00
15477;BME280;7840;42.702;23.296;2022-08-25T00:46:59;94935.34;;;19.68;100.00
15477;BME280;7840;42.702;23.296;2022-08-25T00:49:31;94934.28;;;19.70;100.00
15477;BME280;7840;42.702;23.296;2022-08-25T00:52:02;94941.56;;;19.55;100.00
15477;BME280;7840;42.702;23.296;2022-08-25T00:54:34;94943.16;;;19.56;100.00
15477;BME280;7840;42.702;23.296;2022-08-25T00:57:05;94944.06;;;19.52;100.00
15477;BME280;7840;42.702;23.296;2022-08-25T00:59:34;94932.28;;;19.17;100.00
15477;BME280;7840;42.702;23.296;2022-08-25T01:02:04;94939.00;;;19.28;100.00
15477;BME280;7840;42.702;23.296;2022-08-25T01:04:33;94937.22;;;19.23;100.00
15477;BME280;7840;42.702;23.296;2022-08-25T01:07:01;94919.97;;;19.38;100.00
15477;BME280;7840;42.702;23.296;2022-08-25T01:09:32;94913.59;;;19.34;100.00
15477;BME280;7840;42.702;23.296;2022-08-25T01:12:00;94902.25;;;19.37;100.00
15477;BME280;7840;42.702;23.296;2022-08-25T01:14:29;94912.03;;;19.33;100.00
15477;BME280;7840;42.702;23.296;2022-08-25T01:16:58;94902.25;;;19.37;100.00
15477;BME280;7840;42.702;23.296;2022-08-25T01:19:28;94917.03;;;19.26;100.00
15477;BME280;7840;42.702;23.296;2022-08-25T01:21:59;94912.06;;;19.19;100.00
15477;BME280;7840;42.702;23.296;2022-08-25T01:24:32;94913.50;;;19.17;100.00
15477;BME280;7840;42.702;23.296;2022-08-25T01:27:02;94896.34;;;19.26;100.00
15477;BME280;7840;42.702;23.296;2022-08-25T01:29:30;94901.09;;;19.29;100.00
15477;BME280;7840;42.702;23.296;2022-08-25T01:32:13;94908.50;;;19.24;100.00
15477;BME280;7840;42.702;23.296;2022-08-25T01:34:45;94909.09;;;19.21;100.00
15477;BME280;7840;42.702;23.296;2022-08-25T01:37:15;94911.28;;;19.19;100.00
15477;BME280;7840;42.702;23.296;2022-08-25T01:39:44;94911.66;;;19.26;100.00
15477;BME280;7840;42.702;23.296;2022-08-25T01:42:27;94915.38;;;19.38;100.00
15477;BME280;7840;42.702;23.296;2022-08-25T01:44:58;94906.53;;;19.38;100.00
15477;BME280;7840;42.702;23.296;2022-08-25T01:47:25;94910.91;;;19.34;100.00
15477;BME280;7840;42.702;23.296;2022-08-25T01:49:53;94904.22;;;19.45;100.00
15477;BME280;7840;42.702;23.296;2022-08-25T01:52:29;94907.22;;;19.44;100.00
15477;BME280;7840;42.702;23.296;2022-08-25T01:54:58;94909.38;;;19.41;100.00
15477;BME280;7840;42.702;23.296;2022-08-25T01:57:28;94918.53;;;19.40;100.00
15477;BME280;7840;42.702;23.296;2022-08-25T01:59:57;94917.88;;;19.35;100.00
15477;BME280;7840;42.702;23.296;2022-08-25T02:02:24;94917.22;;;19.29;100.00
15477;BME280;7840;42.702;23.296;2022-08-25T02:04:52;94919.03;;;19.20;100.00
15477;BME280;7840;42.702;23.296;2022-08-25T02:07:22;94914.81;;;19.28;100.00
15477;BME280;7840;42.702;23.296;2022-08-25T02:09:50;94907.28;;;19.30;100.00
15477;BME280;7840;42.702;23.296;2022-08-25T02:12:17;94903.84;;;19.38;100.00
15477;BME280;7840;42.702;23.296;2022-08-25T02:14:45;94899.81;;;19.49;100.00
15477;BME280;7840;42.702;23.296;2022-08-25T02:17:14;94908.84;;;19.53;100.00
15477;BME280;7840;42.702;23.296;2022-08-25T02:19:42;94900.19;;;19.56;100.00
15477;BME280;7840;42.702;23.296;2022-08-25T02:22:10;94900.19;;;19.56;100.00
15477;BME280;7840;42.702;23.296;2022-08-25T02:24:39;94897.00;;;19.54;100.00
15477;BME280;7840;42.702;23.296;2022-08-25T02:27:07;94894.81;;;19.56;100.00
15477;BME280;7840;42.702;23.296;2022-08-25T02:29:35;94894.81;;;19.56;100.00
15477;BME280;7840;42.702;23.296;2022-08-25T02:32:05;94891.44;;;19.51;100.00
15477;BME280;7840;42.702;23.296;2022-08-25T02:34:33;94897.13;;;19.49;100.00
15477;BME280;7840;42.702;23.296;2022-08-25T02:37:06;94894.44;;;19.49;100.00
15477;BME280;7840;42.702;23.296;2022-08-25T02:39:39;94898.56;;;19.55;100.00
15477;BME280;7840;42.702;23.296;2022-08-25T02:42:06;94900.97;;;19.57;100.00
15477;BME280;7840;42.702;23.296;2022-08-25T02:44:34;94894.81;;;19.56;100.00
15477;BME280;7840;42.702;23.296;2022-08-25T02:47:01;94895.41;;;19.53;100.00
15477;BME280;7840;42.702;23.296;2022-08-25T02:49:29;94899.19;;;19.52;100.00
15477;BME280;7840;42.702;23.296;2022-08-25T02:51:57;94897.25;;;19.44;100.00
15477;BME280;7840;42.702;23.296;2022-08-25T02:54:25;94894.06;;;19.42;100.00
15477;BME280;7840;42.702;23.296;2022-08-25T02:56:54;94902.75;;;19.39;100.00
15477;BME280;7840;42.702;23.296;2022-08-25T02:59:22;94904.31;;;19.40;100.00
15477;BME280;7840;42.702;23.296;2022-08-25T03:01:49;94916.16;;;19.39;100.00
15477;BME280;7840;42.702;23.296;2022-08-25T03:04:19;94917.38;;;19.33;100.00
15477;BME280;7840;42.702;23.296;2022-08-25T03:06:47;94920.50;;;19.26;100.00
15477;BME280;7840;42.702;23.296;2022-08-25T03:09:16;94916.13;;;19.30;100.00
15477;BME280;7840;42.702;23.296;2022-08-25T03:11:44;94915.25;;;19.21;100.00
15477;BME280;7840;42.702;23.296;2022-08-25T03:14:14;94917.03;;;19.26;100.00
15477;BME280;7840;42.702;23.296;2022-08-25T03:16:42;94905.31;;;19.22;100.00
15477;BME280;7840;42.702;23.296;2022-08-25T03:19:10;94901.75;;;19.12;100.00
15477;BME280;7840;42.702;23.296;2022-08-25T03:21:38;94907.13;;;19.12;100.00
15477;BME280;7840;42.702;23.296;2022-08-25T03:24:06;94904.34;;;19.18;100.00
15477;BME280;7840;42.702;23.296;2022-08-25T03:26:33;94901.53;;;19.23;100.00
15477;BME280;7840;42.702;23.296;2022-08-25T03:29:22;94909.44;;;19.28;100.00
15477;BME280;7840;42.702;23.296;2022-08-25T03:31:51;94906.91;;;19.23;100.00
15477;BME280;7840;42.702;23.296;2022-08-25T03:34:21;94909.13;;;19.07;100.00
15477;BME280;7840;42.702;23.296;2022-08-25T03:36:51;94903.97;;;19.10;100.00
15477;BME280;7840;42.702;23.296;2022-08-25T03:39:20;94911.13;;;19.15;100.00
15477;BME280;7840;42.702;23.296;2022-08-25T03:41:48;94907.19;;;19.21;100.00
15477;BME280;7840;42.702;23.296;2022-08-25T03:44:18;94905.69;;;19.29;100.00
15477;BME280;7840;42.702;23.296;2022-08-25T03:46:49;94909.34;;;19.33;100.00
15477;BME280;7840;42.702;23.296;2022-08-25T03:49:20;94907.63;;;19.37;100.00
15477;BME280;7840;42.702;23.296;2022-08-25T03:51:50;94900.47;;;19.32;100.00
15477;BME280;7840;42.702;23.296;2022-08-25T03:54:21;94902.38;;;19.09;100.00
15477;BME280;7840;42.702;23.296;2022-08-25T03:56:49;94903.38;;;19.00;100.00
15477;BME280;7840;42.702;23.296;2022-08-25T03:59:19;94899.38;;;19.11;100.00
15477;BME280;7840;42.702;23.296;2022-08-25T04:01:47;94894.59;;;19.22;100.00
15477;BME280;7840;42.702;23.296;2022-08-25T04:04:15;94891.75;;;19.27;100.00
15477;BME280;7840;42.702;23.296;2022-08-25T04:06:43;94896.22;;;19.09;100.00
15477;BME280;7840;42.702;23.296;2022-08-25T04:09:14;94893.59;;;19.18;100.00
15477;BME280;7840;42.702;23.296;2022-08-25T04:11:42;94901.22;;;19.24;100.00
15477;BME280;7840;42.702;23.296;2022-08-25T04:14:11;94892.50;;;19.19;100.00
15477;BME280;7840;42.702;23.296;2022-08-25T04:16:56;94903.97;;;19.33;100.00
15477;BME280;7840;42.702;23.296;2022-08-25T04:19:24;94900.84;;;19.39;100.00
15477;BME280;7840;42.702;23.296;2022-08-25T04:21:51;94911.28;;;19.41;100.00
15477;BME280;7840;42.702;23.296;2022-08-25T04:24:20;94906.16;;;19.53;100.00
15477;BME280;7840;42.702;23.296;2022-08-25T04:26:51;94904.81;;;19.42;100.00
15477;BME280;7840;42.702;23.296;2022-08-25T04:29:20;94902.19;;;19.51;100.00
15477;BME280;7840;42.702;23.296;2022-08-25T04:31:50;94889.06;;;19.49;100.00
15477;BME280;7840;42.702;23.296;2022-08-25T04:34:23;94884.66;;;19.53;100.00
15477;BME280;7840;42.702;23.296;2022-08-25T04:36:51;94889.44;;;19.56;100.00
15477;BME280;7840;42.702;23.296;2022-08-25T04:39:19;94890.28;;;19.65;100.00
15477;BME280;7840;42.702;23.296;2022-08-25T04:41:47;94903.72;;;19.65;100.00
15477;BME280;7840;42.702;23.296;2022-08-25T04:44:17;94903.53;;;19.62;100.00
15477;BME280;7840;42.702;23.296;2022-08-25T04:46:44;94901.88;;;19.75;100.00
15477;BME280;7840;42.702;23.296;2022-08-25T04:49:15;94898.78;;;19.90;100.00
15477;BME280;7840;42.702;23.296;2022-08-25T04:51:44;94910.38;;;19.99;100.00
15477;BME280;7840;42.702;23.296;2022-08-25T04:54:13;94912.78;;;20.09;100.00
15477;BME280;7840;42.702;23.296;2022-08-25T04:56:42;94919.81;;;20.19;100.00
15477;BME280;7840;42.702;23.296;2022-08-25T04:59:13;94918.13;;;20.32;100.00
15477;BME280;7840;42.702;23.296;2022-08-25T05:01:44;94918.94;;;20.41;100.00
15477;BME280;7840;42.702;23.296;2022-08-25T05:04:14;94912.75;;;20.40;100.00
15477;BME280;7840;42.702;23.296;2022-08-25T05:06:45;94920.19;;;20.43;100.00
15477;BME280;7840;42.702;23.296;2022-08-25T05:09:13;94918.38;;;20.61;100.00
15477;BME280;7840;42.702;23.296;2022-08-25T05:11:42;94922.88;;;20.43;100.00
15477;BME280;7840;42.702;23.296;2022-08-25T05:14:11;94913.31;;;20.60;100.00
15477;BME280;7840;42.702;23.296;2022-08-25T05:16:49;94912.53;;;20.68;100.00
15477;BME280;7840;42.702;23.296;2022-08-25T05:19:17;94909.38;;;20.74;100.00
15477;BME280;7840;42.702;23.296;2022-08-25T05:21:58;94902.72;;;20.72;100.00
15477;BME280;7840;42.702;23.296;2022-08-25T05:24:27;94909.50;;;20.52;100.00
15477;BME280;7840;42.702;23.296;2022-08-25T05:26:55;94898.44;;;20.62;100.00
15477;BME280;7840;42.702;23.296;2022-08-25T05:29:28;94893.06;;;20.62;100.00
15477;BME280;7840;42.702;23.296;2022-08-25T05:31:56;94894.50;;;20.68;100.00
15477;BME280;7840;42.702;23.296;2022-08-25T05:34:25;94906.03;;;20.60;100.00
15477;BME280;7840;42.702;23.296;2022-08-25T05:36:55;94898.63;;;20.74;100.00
15477;BME280;7840;42.702;23.296;2022-08-25T05:39:37;94899.25;;;20.89;100.00
15477;BME280;7840;42.702;23.296;2022-08-25T05:42:05;94906.69;;;20.92;100.00
15477;BME280;7840;42.702;23.296;2022-08-25T05:44:35;94904.34;;;21.08;100.00
15477;BME280;7840;42.702;23.296;2022-08-25T05:47:03;94904.19;;;21.21;100.00
15477;BME280;7840;42.702;23.296;2022-08-25T05:49:30;94900.06;;;21.33;100.00
15477;BME280;7840;42.702;23.296;2022-08-25T05:51:58;94899.72;;;21.25;100.00
15477;BME280;7840;42.702;23.296;2022-08-25T05:54:25;94910.69;;;21.03;100.00
15477;BME280;7840;42.702;23.296;2022-08-25T05:56:56;94910.50;;;21.25;100.00
15477;BME280;7840;42.702;23.296;2022-08-25T05:59:23;94905.78;;;21.22;100.00
15477;BME280;7840;42.702;23.296;2022-08-25T06:01:52;94908.94;;;21.16;100.00
15477;BME280;7840;42.702;23.296;2022-08-25T06:04:40;94902.91;;;21.01;100.00
15477;BME280;7840;42.702;23.296;2022-08-25T06:07:08;94903.88;;;21.14;100.00
15477;BME280;7840;42.702;23.296;2022-08-25T06:09:37;94909.09;;;21.19;100.00
15477;BME280;7840;42.702;23.296;2022-08-25T06:12:23;94908.97;;;21.42;100.00
15477;BME280;7840;42.702;23.296;2022-08-25T06:14:51;94913.53;;;21.58;100.00
15477;BME280;7840;42.702;23.296;2022-08-25T06:17:18;94912.56;;;21.54;100.00
15477;BME280;7840;42.702;23.296;2022-08-25T06:19:47;94913.69;;;21.62;100.00
15477;BME280;7840;42.702;23.296;2022-08-25T06:22:15;94906.53;;;21.66;100.00
15477;BME280;7840;42.702;23.296;2022-08-25T06:24:43;94903.81;;;21.75;100.00
15477;BME280;7840;42.702;23.296;2022-08-25T06:27:12;94900.81;;;21.76;100.00
15477;BME280;7840;42.702;23.296;2022-08-25T06:29:40;94899.03;;;21.80;100.00
15477;BME280;7840;42.702;23.296;2022-08-25T06:32:08;94905.09;;;21.77;100.00
15477;BME280;7840;42.702;23.296;2022-08-25T06:34:36;94904.09;;;21.91;100.00
15477;BME280;7840;42.702;23.296;2022-08-25T06:37:07;94907.84;;;22.07;100.00
15477;BME280;7840;42.702;23.296;2022-08-25T06:39:35;94901.75;;;22.27;100.00
15477;BME280;7840;42.702;23.296;2022-08-25T06:42:05;94900.28;;;22.38;99.68
15477;BME280;7840;42.702;23.296;2022-08-25T06:44:34;94902.78;;;22.44;98.46
15477;BME280;7840;42.702;23.296;2022-08-25T06:47:02;94908.94;;;22.53;98.69
15477;BME280;7840;42.702;23.296;2022-08-25T06:49:33;94905.75;;;22.51;100.00
15477;BME280;7840;42.702;23.296;2022-08-25T06:55:42;94905.09;;;23.13;95.05
15477;BME280;7840;42.702;23.296;2022-08-25T06:58:09;94895.53;;;23.15;92.24
15477;BME280;7840;42.702;23.296;2022-08-25T07:00:39;94894.28;;;23.34;91.92
15477;BME280;7840;42.702;23.296;2022-08-25T07:03:12;94903.88;;;23.43;91.23
15477;BME280;7840;42.702;23.296;2022-08-25T07:05:40;94902.53;;;23.70;89.58
15477;BME280;7840;42.702;23.296;2022-08-25T07:08:08;94894.00;;;23.81;87.83
15477;BME280;7840;42.702;23.296;2022-08-25T07:10:36;94893.56;;;23.58;88.14
15477;BME280;7840;42.702;23.296;2022-08-25T07:13:04;94893.19;;;23.47;88.17
15477;BME280;7840;42.702;23.296;2022-08-25T07:15:39;94897.34;;;23.44;88.34
15477;BME280;7840;42.702;23.296;2022-08-25T07:18:07;94895.44;;;23.78;87.43
15477;BME280;7840;42.702;23.296;2022-08-25T07:20:39;94882.44;;;24.29;84.43
15477;BME280;7840;42.702;23.296;2022-08-25T07:23:07;94886.97;;;24.49;82.82
15477;BME280;7840;42.702;23.296;2022-08-25T07:25:39;94891.50;;;24.58;80.70
15477;BME280;7840;42.702;23.296;2022-08-25T07:28:06;94892.81;;;24.15;80.75
15477;BME280;7840;42.702;23.296;2022-08-25T07:30:34;94891.56;;;24.12;80.39
15477;BME280;7840;42.702;23.296;2022-08-25T07:33:03;94892.19;;;24.54;79.32
15477;BME280;7840;42.702;23.296;2022-08-25T07:35:47;94889.91;;;24.56;76.67
15477;BME280;7840;42.702;23.296;2022-08-25T07:38:17;94892.16;;;24.42;79.33
15477;BME280;7840;42.702;23.296;2022-08-25T07:40:45;94885.81;;;24.14;81.85
15477;BME280;7840;42.702;23.296;2022-08-25T07:43:20;94892.59;;;24.32;78.76
15477;BME280;7840;42.702;23.296;2022-08-25T07:45:51;94892.41;;;24.37;78.66
15477;BME280;7840;42.702;23.296;2022-08-25T07:48:23;94895.75;;;24.22;78.21
15477;BME280;7840;42.702;23.296;2022-08-25T07:50:51;94889.44;;;24.18;78.95
15477;BME280;7840;42.702;23.296;2022-08-25T07:53:19;94895.44;;;24.36;79.24
15477;BME280;7840;42.702;23.296;2022-08-25T07:55:47;94889.38;;;24.39;79.42
15477;BME280;7840;42.702;23.296;2022-08-25T07:58:28;94886.75;;;24.54;77.93
15477;BME280;7840;42.702;23.296;2022-08-25T08:00:59;94891.44;;;24.94;78.02
15477;BME280;7840;42.702;23.296;2022-08-25T08:03:28;94889.19;;;25.08;74.21
15477;BME280;7840;42.702;23.296;2022-08-25T08:05:56;94888.09;;;24.85;75.25
15477;BME280;7840;42.702;23.296;2022-08-25T08:08:25;94888.31;;;24.80;74.55
15477;BME280;7840;42.702;23.296;2022-08-25T08:10:52;94886.28;;;24.77;77.16
15477;BME280;7840;42.702;23.296;2022-08-25T08:13:21;94880.03;;;25.13;75.67
15477;BME280;7840;42.702;23.296;2022-08-25T08:15:48;94882.38;;;25.55;71.60
15477;BME280;7840;42.702;23.296;2022-08-25T08:18:16;94873.59;;;25.74;71.42
15477;BME280;7840;42.702;23.296;2022-08-25T08:20:46;94882.13;;;25.88;69.16
15477;BME280;7840;42.702;23.296;2022-08-25T08:23:15;94875.50;;;25.45;69.88
15477;BME280;7840;42.702;23.296;2022-08-25T08:25:43;94866.44;;;25.53;72.07
15477;BME280;7840;42.702;23.296;2022-08-25T08:28:10;94869.75;;;25.75;70.73
15477;BME280;7840;42.702;23.296;2022-08-25T08:30:38;94866.25;;;25.74;69.29
15477;BME280;7840;42.702;23.296;2022-08-25T08:33:05;94867.03;;;25.75;69.21
15477;BME280;7840;42.702;23.296;2022-08-25T08:35:33;94864.41;;;25.50;71.50
15477;BME280;7840;42.702;23.296;2022-08-25T08:38:02;94861.19;;;25.88;69.43
15477;BME280;7840;42.702;23.296;2022-08-25T08:40:31;94865.13;;;25.91;67.91
15477;BME280;7840;42.702;23.296;2022-08-25T08:43:05;94862.06;;;26.24;65.80
15477;BME280;7840;42.702;23.296;2022-08-25T08:45:36;94856.19;;;26.38;66.21
15477;BME280;7840;42.702;23.296;2022-08-25T08:48:30;94862.75;;;26.37;65.39
15477;BME280;7840;42.702;23.296;2022-08-25T08:51:11;94853.63;;;26.96;63.11
15477;BME280;7840;42.702;23.296;2022-08-25T08:53:47;94852.25;;;27.41;61.46
15477;BME280;7840;42.702;23.296;2022-08-25T08:56:19;94853.94;;;27.88;59.57
15477;BME280;7840;42.702;23.296;2022-08-25T08:58:54;94845.88;;;28.18;57.71
15477;BME280;7840;42.702;23.296;2022-08-25T09:01:27;94854.88;;;27.99;57.69
15477;BME280;7840;42.702;23.296;2022-08-25T09:03:58;94855.63;;;27.96;57.67
15477;BME280;7840;42.702;23.296;2022-08-25T09:06:31;94848.78;;;28.05;57.27
15477;BME280;7840;42.702;23.296;2022-08-25T09:09:05;94847.16;;;28.01;56.96
15477;BME280;7840;42.702;23.296;2022-08-25T09:11:45;94850.19;;;27.96;56.85
15477;BME280;7840;42.702;23.296;2022-08-25T09:14:29;94847.44;;;27.96;55.74
15477;BME280;7840;42.702;23.296;2022-08-25T09:17:03;94845.81;;;28.14;56.19
15477;BME280;7840;42.702;23.296;2022-08-25T09:20:04;94845.19;;;27.78;52.98
15477;BME280;7840;42.702;23.296;2022-08-25T09:22:42;94833.41;;;27.94;54.30
15477;BME280;7840;42.702;23.296;2022-08-25T09:25:21;94838.41;;;27.92;54.28
15477;BME280;7840;42.702;23.296;2022-08-25T09:28:00;94839.03;;;27.82;54.23
15477;BME280;7840;42.702;23.296;2022-08-25T09:30:36;94845.31;;;27.86;53.91
15477;BME280;7840;42.702;23.296;2022-08-25T09:33:07;94835.81;;;27.76;54.51
15477;BME280;7840;42.702;23.296;2022-08-25T09:35:39;94833.88;;;27.76;54.23
15477;BME280;7840;42.702;23.296;2022-08-25T09:38:10;94836.16;;;27.94;53.39
15477;BME280;7840;42.702;23.296;2022-08-25T09:40:44;94839.81;;;28.28;52.01
15477;BME280;7840;42.702;23.296;2022-08-25T09:43:21;94828.72;;;28.67;48.04
15477;BME280;7840;42.702;23.296;2022-08-25T09:45:57;94824.94;;;28.75;48.60
15477;BME280;7840;42.702;23.296;2022-08-25T09:48:27;94816.06;;;29.08;47.80
15477;BME280;7840;42.702;23.296;2022-08-25T09:50:58;94816.41;;;29.36;46.72
15477;BME280;7840;42.702;23.296;2022-08-25T09:53:28;94817.97;;;29.71;46.42
15477;BME280;7840;42.702;23.296;2022-08-25T09:56:01;94825.34;;;29.67;46.26
15477;BME280;7840;42.702;23.296;2022-08-25T09:58:31;94830.22;;;29.51;45.88
15477;BME280;7840;42.702;23.296;2022-08-25T10:01:11;94833.56;;;29.37;46.48
15477;BME280;7840;42.702;23.296;2022-08-25T10:03:54;94829.94;;;29.59;45.87
15477;BME280;7840;42.702;23.296;2022-08-25T10:06:23;94829.31;;;29.73;45.17
15477;BME280;7840;42.702;23.296;2022-08-25T10:08:55;94826.28;;;29.82;44.79
15477;BME280;7840;42.702;23.296;2022-08-25T10:11:41;94831.53;;;29.64;44.50
15477;BME280;7840;42.702;23.296;2022-08-25T10:14:25;94821.31;;;29.54;44.75
15477;BME280;7840;42.702;23.296;2022-08-25T10:17:12;94815.34;;;29.11;44.36
15477;BME280;7840;42.702;23.296;2022-08-25T10:19:54;94819.78;;;28.93;45.65
15477;BME280;7840;42.702;23.296;2022-08-25T10:22:42;94813.25;;;29.01;45.70
15477;BME280;7840;42.702;23.296;2022-08-25T10:25:12;94814.97;;;29.50;44.21
15477;BME280;7840;42.702;23.296;2022-08-25T10:27:51;94819.44;;;30.06;43.86
15477;BME280;7840;42.702;23.296;2022-08-25T10:30:34;94821.44;;;30.57;41.81
15477;BME280;7840;42.702;23.296;2022-08-25T10:33:12;94811.41;;;30.71;40.96
15477;BME280;7840;42.702;23.296;2022-08-25T10:35:53;94821.69;;;30.92;41.18
15477;BME280;7840;42.702;23.296;2022-08-25T10:38:37;94817.69;;;30.79;40.99
15477;BME280;7840;42.702;23.296;2022-08-25T10:41:20;94811.66;;;31.18;41.01
15477;BME280;7840;42.702;23.296;2022-08-25T10:44:04;94805.50;;;31.39;39.41
15477;BME280;7840;42.702;23.296;2022-08-25T10:47:10;94797.63;;;31.23;40.02
15477;BME280;7840;42.702;23.296;2022-08-25T10:49:45;94800.66;;;31.07;41.11
15477;BME280;7840;42.702;23.296;2022-08-25T10:52:17;94789.84;;;31.43;40.04
15477;BME280;7840;42.702;23.296;2022-08-25T10:54:57;94796.22;;;31.79;39.15
15477;BME280;7840;42.702;23.296;2022-08-25T10:57:33;94790.38;;;31.98;39.94
15477;BME280;7840;42.702;23.296;2022-08-25T11:00:07;94792.63;;;31.61;38.94
15477;BME280;7840;42.702;23.296;2022-08-25T11:03:12;94786.06;;;31.87;39.02
15477;BME280;7840;42.702;23.296;2022-08-25T11:05:46;94788.34;;;31.70;38.99
15477;BME280;7840;42.702;23.296;2022-08-25T11:08:21;94790.78;;;32.07;39.30
15477;BME280;7840;42.702;23.296;2022-08-25T11:11:01;94783.72;;;31.99;39.45
15477;BME280;7840;42.702;23.296;2022-08-25T11:13:40;94787.63;;;32.27;38.34
15477;BME280;7840;42.702;23.296;2022-08-25T11:16:13;94778.97;;;32.64;37.23
15477;BME280;7840;42.702;23.296;2022-08-25T11:18:50;94774.25;;;32.79;37.25
15477;BME280;7840;42.702;23.296;2022-08-25T11:21:24;94780.97;;;32.24;38.51
15477;BME280;7840;42.702;23.296;2022-08-25T11:24:00;94773.53;;;31.96;38.23
15477;BME280;7840;42.702;23.296;2022-08-25T11:26:34;94767.94;;;31.36;39.44
15477;BME280;7840;42.702;23.296;2022-08-25T11:29:13;94765.22;;;30.56;40.93
15477;BME280;7840;42.702;23.296;2022-08-25T11:31:57;94767.34;;;30.87;41.68
15477;BME280;7840;42.702;23.296;2022-08-25T11:34:25;94760.16;;;30.65;41.44
15477;BME280;7840;42.702;23.296;2022-08-25T11:36:57;94749.06;;;31.13;40.67
15477;BME280;7840;42.702;23.296;2022-08-25T11:39:48;94751.97;;;31.77;39.58
15477;BME280;7840;42.702;23.296;2022-08-25T11:42:29;94753.06;;;31.26;39.47
15477;BME280;7840;42.702;23.296;2022-08-25T11:45:10;94743.63;;;31.20;40.55
15477;BME280;7840;42.702;23.296;2022-08-25T11:47:59;94759.84;;;31.93;38.62
15477;BME280;7840;42.702;23.296;2022-08-25T11:50:34;94734.31;;;32.63;37.40
15477;BME280;7840;42.702;23.296;2022-08-25T11:53:18;94750.34;;;32.83;36.58
15477;BME280;7840;42.702;23.296;2022-08-25T11:55:50;94735.13;;;32.32;37.13
15477;BME280;7840;42.702;23.296;2022-08-25T11:58:41;94732.84;;;31.98;37.93
15477;BME280;7840;42.702;23.296;2022-08-25T12:04:31;94738.56;;;30.45;40.30
15477;BME280;7840;42.702;23.296;2022-08-25T12:07:18;94734.94;;;30.89;40.27
15477;BME280;7840;42.702;23.296;2022-08-25T12:10:16;94737.47;;;31.51;38.34
15477;BME280;7840;42.702;23.296;2022-08-25T12:15:55;94731.59;;;31.56;38.02
15477;BME280;7840;42.702;23.296;2022-08-25T12:18:41;94728.50;;;32.44;37.11
15477;BME280;7840;42.702;23.296;2022-08-25T12:21:29;94732.72;;;32.77;36.42
15477;BME280;7840;42.702;23.296;2022-08-25T12:24:13;94726.19;;;31.92;36.70
15477;BME280;7840;42.702;23.296;2022-08-25T12:26:53;94735.94;;;32.18;37.64
15477;BME280;7840;42.702;23.296;2022-08-25T12:29:32;94733.09;;;32.86;35.71
15477;BME280;7840;42.702;23.296;2022-08-25T12:32:35;94734.66;;;32.87;35.90
15477;BME280;7840;42.702;23.296;2022-08-25T12:35:26;94726.56;;;32.41;36.64
15477;BME280;7840;42.702;23.296;2022-08-25T12:38:09;94733.19;;;31.68;37.09
15477;BME280;7840;42.702;23.296;2022-08-25T12:40:53;94732.38;;;32.32;36.70
15477;BME280;7840;42.702;23.296;2022-08-25T12:43:29;94725.56;;;33.04;35.47
15477;BME280;7840;42.702;23.296;2022-08-25T12:46:31;94728.75;;;32.85;35.24
15477;BME280;7840;42.702;23.296;2022-08-25T12:49:00;94728.00;;;32.77;34.90
15477;BME280;7840;42.702;23.296;2022-08-25T12:51:43;94724.94;;;33.52;34.09
15477;BME280;7840;42.702;23.296;2022-08-25T12:54:19;94722.34;;;33.83;34.24
15477;BME280;7840;42.702;23.296;2022-08-25T12:56:54;94724.31;;;34.31;32.93
15477;BME280;7840;42.702;23.296;2022-08-25T12:59:30;94722.28;;;34.42;32.89
15477;BME280;7840;42.702;23.296;2022-08-25T13:02:17;94731.22;;;34.53;32.15
15477;BME280;7840;42.702;23.296;2022-08-25T13:08:01;94722.19;;;33.52;33.53
15477;BME280;7840;42.702;23.296;2022-08-25T13:10:45;94726.88;;;32.67;35.11
15477;BME280;7840;42.702;23.296;2022-08-25T13:15:56;94733.16;;;31.40;36.61
15477;BME280;7840;42.702;23.296;2022-08-25T13:18:26;94726.34;;;30.98;37.72
15477;BME280;7840;42.702;23.296;2022-08-25T13:21:12;94726.75;;;31.00;37.70
15477;BME280;7840;42.702;23.296;2022-08-25T13:23:43;94730.03;;;31.45;36.49
15477;BME280;7840;42.702;23.296;2022-08-25T13:26:20;94729.69;;;32.10;35.97
15477;BME280;7840;42.702;23.296;2022-08-25T13:28:52;94725.31;;;32.63;35.28
15477;BME280;7840;42.702;23.296;2022-08-25T13:31:21;94724.28;;;33.27;34.45
15477;BME280;7840;42.702;23.296;2022-08-25T13:33:55;94730.53;;;33.90;33.05
15477;BME280;7840;42.702;23.296;2022-08-25T13:36:24;94726.19;;;34.44;32.49
15477;BME280;7840;42.702;23.296;2022-08-25T13:39:12;94722.75;;;34.71;31.89
15477;BME280;7840;42.702;23.296;2022-08-25T13:41:56;94723.69;;;35.25;30.98